Time;durP1;ratioP1;P1;durP2;ratioP2;P2;SDS_P1;SDS_P2;PMS_P1;PMS_P2;Temp;Humidity;BMP_temperature;BMP_pressure;BME280_temperature;BME280_humidity;BME280_pressure;Samples;Min_cycle;Max_cycle;Signal;HPM_P1;HPM_P2
2023/02/19 00:01:08;;;;;;;9.40;4.80;;;;;;;9.08;96.54;100699.63;108868;1257;74373;-78
2023/02/19 00:03:36;;;;;;;9.50;4.80;;;;;;;9.07;96.65;100699.33;108734;1259;70525;-79
2023/02/19 00:06:05;;;;;;;9.10;4.90;;;;;;;9.08;96.46;100695.89;108837;1257;72707;-78
2023/02/19 00:08:33;;;;;;;11.50;5.00;;;;;;;9.07;96.57;100692.84;108855;1257;60160;-78
2023/02/19 00:11:02;;;;;;;11.00;5.30;;;;;;;9.07;96.58;100687.16;108920;1257;59406;-79
2023/02/19 00:13:29;;;;;;;8.80;4.70;;;;;;;9.08;96.51;100685.00;108864;1257;73119;-79
2023/02/19 00:15:56;;;;;;;12.40;5.10;;;;;;;9.08;96.64;100691.55;108981;1257;70052;-78
2023/02/19 00:18:23;;;;;;;8.90;4.90;;;;;;;9.08;96.50;100686.23;108955;1257;71362;-78
2023/02/19 00:20:50;;;;;;;8.70;4.80;;;;;;;9.09;96.57;100683.11;108957;1256;60920;-78
2023/02/19 00:23:17;;;;;;;10.80;5.40;;;;;;;9.09;96.45;100682.73;109035;1257;60095;-78
2023/02/19 00:25:44;;;;;;;11.50;4.90;;;;;;;9.09;96.45;100667.73;108970;1255;74620;-78
2023/02/19 00:28:11;;;;;;;8.60;5.10;;;;;;;9.12;96.39;100654.86;108952;1256;69070;-78
2023/02/19 00:30:38;;;;;;;8.90;4.20;;;;;;;9.15;96.22;100648.95;109004;1256;71959;-78
2023/02/19 00:33:07;;;;;;;7.80;4.20;;;;;;;9.16;96.14;100649.65;108929;1256;59635;-78
2023/02/19 00:35:34;;;;;;;7.80;3.90;;;;;;;9.18;95.93;100649.08;109016;1257;59200;-78
2023/02/19 00:38:02;;;;;;;8.00;4.30;;;;;;;9.19;95.83;100648.08;108896;1257;74416;-78
2023/02/19 00:40:29;;;;;;;6.60;3.80;;;;;;;9.21;95.64;100653.77;108899;1257;70023;-78
2023/02/19 00:42:56;;;;;;;10.40;4.10;;;;;;;9.19;95.60;100647.78;108892;1257;72381;-78
2023/02/19 00:45:23;;;;;;;9.20;3.90;;;;;;;9.18;95.50;100646.17;108435;1257;61257;-78
2023/02/19 00:47:50;;;;;;;6.40;4.20;;;;;;;9.16;95.53;100641.70;108775;1258;60371;-78
2023/02/19 00:50:17;;;;;;;6.70;4.30;;;;;;;9.15;95.67;100644.29;108891;1257;74513;-78
2023/02/19 00:52:43;;;;;;;10.60;4.60;;;;;;;9.14;96.33;100634.44;108807;1257;71352;-78
2023/02/19 00:55:11;;;;;;;9.40;5.40;;;;;;;9.12;97.27;100627.79;108946;1257;71208;-79
2023/02/19 00:57:38;;;;;;;10.10;6.50;;;;;;;9.06;98.65;100622.35;108971;1257;60483;-78
2023/02/19 01:00:05;;;;;;;12.40;7.20;;;;;;;9.00;99.70;100614.39;108904;1257;59358;-79
2023/02/19 01:02:33;;;;;;;21.50;11.90;;;;;;;8.92;100.00;100610.15;108970;1257;73104;-79
2023/02/19 01:05:00;;;;;;;24.20;11.90;;;;;;;8.86;100.00;100605.70;108882;1257;70890;-78
2023/02/19 01:07:27;;;;;;;28.00;12.90;;;;;;;8.80;100.00;100598.42;108884;1257;70698;-78
2023/02/19 01:09:54;;;;;;;18.30;9.50;;;;;;;8.76;100.00;100598.13;108935;1256;59638;-77
2023/02/19 01:12:23;;;;;;;13.70;7.90;;;;;;;8.72;100.00;100599.92;108976;1259;59108;-77
2023/02/19 01:14:49;;;;;;;13.80;7.20;;;;;;;8.70;100.00;100598.42;108880;1257;73954;-77
2023/02/19 01:17:17;;;;;;;26.70;12.20;;;;;;;8.67;100.00;100603.26;108830;1257;69679;-76
2023/02/19 01:19:44;;;;;;;17.80;8.70;;;;;;;8.64;100.00;100606.79;108948;1257;71085;-75
2023/02/19 01:22:12;;;;;;;11.50;6.80;;;;;;;8.61;100.00;100602.88;108899;1255;59607;-75
2023/02/19 01:24:39;;;;;;;14.00;7.20;;;;;;;8.58;100.00;100603.02;108931;1257;60036;-75
2023/02/19 01:27:06;;;;;;;13.10;7.20;;;;;;;8.57;100.00;100603.84;108990;1258;75020;-75
2023/02/19 01:29:33;;;;;;;12.50;7.30;;;;;;;8.54;100.00;100616.95;108814;1256;71115;-75
2023/02/19 01:32:00;;;;;;;15.10;7.80;;;;;;;8.53;100.00;100611.17;108948;1254;71231;-75
2023/02/19 01:34:32;;;;;;;13.90;7.90;;;;;;;8.48;100.00;100626.77;109016;1257;60911;-75
2023/02/19 01:36:59;;;;;;;15.30;8.30;;;;;;;8.43;100.00;100628.89;108974;1256;61196;-75
2023/02/19 01:39:25;;;;;;;15.90;8.50;;;;;;;8.42;100.00;100630.28;108966;1256;74475;-76
2023/02/19 01:41:52;;;;;;;15.30;9.00;;;;;;;8.39;100.00;100626.33;108971;1257;70853;-77
2023/02/19 01:44:19;;;;;;;14.40;8.50;;;;;;;8.35;100.00;100625.88;108950;1256;71106;-77
2023/02/19 01:46:47;;;;;;;12.20;7.00;;;;;;;8.29;100.00;100623.98;108959;1254;59387;-78
2023/02/19 01:49:25;;;;;;;10.50;6.60;;;;;;;8.25;100.00;100623.29;108860;1256;61419;-77
2023/02/19 01:52:07;;;;;;;9.20;5.80;;;;;;;8.19;100.00;100613.69;108862;1257;74491;-76
2023/02/19 01:54:37;;;;;;;6.60;4.30;;;;;;;8.07;100.00;100605.86;108983;1254;69674;-78
2023/02/19 01:57:07;;;;;;;7.60;3.70;;;;;;;8.00;100.00;100614.74;108798;1257;73047;-77
2023/02/19 01:59:35;;;;;;;4.90;3.20;;;;;;;7.92;100.00;100608.52;108933;1257;60958;-78
2023/02/19 02:02:02;;;;;;;6.20;2.70;;;;;;;7.87;100.00;100600.74;108861;1254;60462;-78
2023/02/19 02:04:30;;;;;;;3.70;2.40;;;;;;;7.81;100.00;100591.17;108971;1256;73438;-78
2023/02/19 02:07:01;;;;;;;3.60;2.10;;;;;;;7.77;100.00;100586.29;108981;1254;69333;-78
2023/02/19 02:12:15;;;;;;;4.20;1.70;;;;;;;7.73;100.00;100586.34;108855;1256;59364;-77
2023/02/19 02:14:45;;;;;;;2.60;1.40;;;;;;;7.71;100.00;100582.83;108903;1254;59003;-78
2023/02/19 02:17:25;;;;;;;3.70;1.40;;;;;;;7.68;100.00;100581.46;109050;1255;73554;-77
2023/02/19 02:20:07;;;;;;;2.30;1.10;;;;;;;7.67;100.00;100577.45;108966;1256;70218;-77
2023/02/19 02:22:39;;;;;;;1.60;0.80;;;;;;;7.65;100.00;100573.06;108949;1254;73139;-77
2023/02/19 02:25:21;;;;;;;2.00;1.00;;;;;;;7.64;100.00;100573.75;108827;1256;60909;-77
2023/02/19 02:28:15;;;;;;;1.50;0.80;;;;;;;7.61;100.00;100575.63;108936;1254;59022;-77
2023/02/19 02:30:46;;;;;;;1.70;0.90;;;;;;;7.61;100.00;100567.15;108970;1254;73171;-78
2023/02/19 02:33:25;;;;;;;1.70;1.00;;;;;;;7.59;100.00;100572.48;108941;1254;70887;-78
2023/02/19 02:35:55;;;;;;;2.40;1.10;;;;;;;7.59;100.00;100576.58;109046;1257;71400;-77
2023/02/19 02:38:27;;;;;;;2.40;1.10;;;;;;;7.60;100.00;100572.36;108974;1256;62122;-77
2023/02/19 02:40:55;;;;;;;3.10;1.50;;;;;;;7.57;100.00;100570.95;109022;1254;59210;-77
2023/02/19 02:43:22;;;;;;;2.70;1.40;;;;;;;7.57;100.00;100574.68;108956;1256;74941;-77
2023/02/19 02:45:49;;;;;;;3.30;1.80;;;;;;;7.55;100.00;100578.33;108946;1254;70583;-77
2023/02/19 02:48:29;;;;;;;5.10;2.10;;;;;;;7.54;100.00;100574.61;108985;1255;71165;-77
2023/02/19 02:50:55;;;;;;;3.70;2.00;;;;;;;7.55;100.00;100575.73;108973;1256;61480;-77
2023/02/19 02:56:30;;;;;;;4.40;2.40;;;;;;;7.56;100.00;100571.08;108987;1254;73605;-77
2023/02/19 02:58:59;;;;;;;5.10;3.00;;;;;;;7.57;100.00;100569.94;108836;1260;70918;-77
2023/02/19 03:04:32;;;;;;;6.40;3.80;;;;;;;7.59;100.00;100561.59;108948;1256;59157;-77
2023/02/19 03:07:06;;;;;;;7.50;4.50;;;;;;;7.60;100.00;100560.81;108969;1258;59002;-77
2023/02/19 03:09:41;;;;;;;8.40;4.60;;;;;;;7.62;100.00;100562.30;108999;1256;73885;-78
2023/02/19 03:20:40;;;;;;;10.30;6.10;;;;;;;7.82;100.00;100565.21;108877;1256;60066;-77
2023/02/19 03:23:08;;;;;;;11.00;6.70;;;;;;;7.88;100.00;100561.23;108935;1254;74369;-77
2023/02/19 03:29:21;;;;;;;1.80;1.00;;;;;;;7.64;100.00;100616.00;108871;1256;71265;-78
2023/02/19 03:31:16;;;;;;;1.20;0.60;;;;;;;7.26;100.00;100618.45;108906;1256;59314;-78
2023/02/19 03:33:46;;;;;;;1.30;0.60;;;;;;;7.03;100.00;100617.61;109046;1256;60074;-78
2023/02/19 03:36:17;;;;;;;1.60;0.60;;;;;;;6.85;100.00;100617.66;108957;1256;73875;-78
2023/02/19 03:39:02;;;;;;;1.20;0.60;;;;;;;6.75;100.00;100622.98;108826;1256;69634;-78
2023/02/19 03:41:52;;;;;;;1.20;0.70;;;;;;;6.61;100.00;100626.13;108921;1256;70569;-78
2023/02/19 03:44:35;;;;;;;1.00;0.60;;;;;;;6.53;100.00;100627.94;108971;1257;60940;-78
2023/02/19 03:47:12;;;;;;;0.80;0.50;;;;;;;6.40;100.00;100629.39;109002;1255;60352;-77
2023/02/19 03:49:42;;;;;;;1.30;0.60;;;;;;;6.36;100.00;100631.38;109021;1255;72867;-77
2023/02/19 03:52:22;;;;;;;0.90;0.50;;;;;;;6.32;100.00;100638.48;109055;1256;71037;-77
2023/02/19 03:55:13;;;;;;;1.70;0.90;;;;;;;6.27;100.00;100641.73;108979;1256;71639;-77
2023/02/19 03:57:57;;;;;;;1.50;0.70;;;;;;;6.21;100.00;100647.58;108857;1256;61576;-77
2023/02/19 04:00:32;;;;;;;1.50;0.90;;;;;;;6.15;100.00;100657.80;108803;1256;59973;-77
2023/02/19 04:03:15;;;;;;;1.70;0.90;;;;;;;6.12;100.00;100653.20;108892;1256;73849;-77
2023/02/19 04:05:45;;;;;;;1.90;1.00;;;;;;;6.08;100.00;100661.08;108971;1256;72146;-77
2023/02/19 04:08:18;;;;;;;2.00;1.10;;;;;;;6.08;100.00;100663.08;108827;1256;72234;-77
2023/02/19 04:10:46;;;;;;;1.80;1.00;;;;;;;6.08;100.00;100667.45;108837;1256;59804;-77
2023/02/19 04:13:23;;;;;;;2.00;1.00;;;;;;;6.07;100.00;100671.69;108819;1258;59140;-77
2023/02/19 04:15:53;;;;;;;1.90;1.10;;;;;;;6.07;100.00;100679.45;108877;1255;73146;-77
2023/02/19 04:18:25;;;;;;;1.90;1.00;;;;;;;6.08;100.00;100678.63;109035;1256;69279;-77
2023/02/19 04:20:52;;;;;;;1.70;1.00;;;;;;;6.09;100.00;100686.96;108952;1256;71364;-77
2023/02/19 04:23:23;;;;;;;1.60;0.90;;;;;;;6.09;100.00;100695.48;108844;1256;60165;-77
2023/02/19 04:25:55;;;;;;;1.80;0.90;;;;;;;6.05;100.00;100704.05;109005;1260;59057;-77
2023/02/19 04:28:22;;;;;;;1.50;0.90;;;;;;;6.02;100.00;100708.17;108883;1254;74567;-77
2023/02/19 04:30:49;;;;;;;1.60;0.90;;;;;;;6.02;100.00;100709.94;109001;1256;70395;-77
2023/02/19 04:33:15;;;;;;;1.20;0.70;;;;;;;6.00;100.00;100714.39;108989;1256;71501;-77
2023/02/19 04:35:43;;;;;;;1.30;0.70;;;;;;;5.90;100.00;100717.70;109030;1255;60904;-77
2023/02/19 04:38:11;;;;;;;1.40;0.70;;;;;;;5.87;100.00;100725.77;108875;1256;59076;-77
2023/02/19 04:40:37;;;;;;;1.40;0.70;;;;;;;5.83;100.00;100732.10;109058;1256;74315;-77
2023/02/19 04:43:04;;;;;;;1.60;0.90;;;;;;;5.80;100.00;100738.15;108825;1257;71431;-77
2023/02/19 04:45:31;;;;;;;1.30;0.80;;;;;;;5.79;100.00;100745.61;108875;1256;72192;-76
2023/02/19 04:47:58;;;;;;;2.00;0.90;;;;;;;5.79;100.00;100752.61;109037;1256;61209;-77
2023/02/19 04:50:25;;;;;;;1.40;0.70;;;;;;;5.80;100.00;100753.97;109035;1255;60258;-77
2023/02/19 04:52:52;;;;;;;1.80;1.10;;;;;;;5.80;100.00;100752.39;108870;1256;74107;-77
2023/02/19 04:55:19;;;;;;;1.50;0.90;;;;;;;5.82;100.00;100756.38;108853;1256;69795;-77
2023/02/19 04:57:46;;;;;;;1.20;0.60;;;;;;;5.80;100.00;100766.39;108981;1256;73699;-77
2023/02/19 05:00:13;;;;;;;1.00;0.40;;;;;;;5.69;100.00;100777.73;108825;1256;60929;-78
2023/02/19 05:02:40;;;;;;;0.90;0.40;;;;;;;5.57;100.00;100785.02;108927;1254;59378;-78
2023/02/19 05:05:08;;;;;;;0.80;0.40;;;;;;;5.48;100.00;100790.86;108797;1256;74494;-77
2023/02/19 05:07:35;;;;;;;0.90;0.40;;;;;;;5.45;100.00;100804.55;109012;1255;69684;-77
2023/02/19 05:10:02;;;;;;;1.30;0.60;;;;;;;5.40;100.00;100812.66;108837;1256;71792;-77
2023/02/19 05:12:30;;;;;;;1.60;0.70;;;;;;;5.35;100.00;100828.42;108946;1256;59705;-78
2023/02/19 05:14:57;;;;;;;1.60;0.70;;;;;;;5.29;100.00;100830.80;109024;1256;59061;-78
2023/02/19 05:17:24;;;;;;;2.00;0.80;;;;;;;5.24;100.00;100832.30;108866;1256;73244;-77
2023/02/19 05:19:51;;;;;;;2.00;0.90;;;;;;;5.21;100.00;100843.65;108829;1256;69649;-78
2023/02/19 05:22:18;;;;;;;2.60;1.10;;;;;;;5.15;100.00;100847.16;108962;1256;71576;-77
2023/02/19 05:24:45;;;;;;;2.60;0.90;;;;;;;5.10;100.00;100846.35;108959;1256;59647;-77
2023/02/19 05:27:12;;;;;;;2.00;0.90;;;;;;;5.06;100.00;100844.80;109017;1254;59896;-77
2023/02/19 05:29:39;;;;;;;2.00;1.00;;;;;;;5.03;100.00;100845.06;108872;1256;74385;-77
2023/02/19 05:32:06;;;;;;;2.10;1.00;;;;;;;5.01;100.00;100850.18;108865;1256;72499;-76
2023/02/19 05:34:33;;;;;;;2.90;1.00;;;;;;;5.00;100.00;100854.61;108813;1258;71453;-77
2023/02/19 05:37:00;;;;;;;3.00;1.20;;;;;;;4.98;100.00;100855.89;108868;1256;60945;-77
2023/02/19 05:39:27;;;;;;;2.70;1.20;;;;;;;4.94;100.00;100858.52;108917;1254;60476;-77
2023/02/19 05:41:54;;;;;;;3.50;1.40;;;;;;;4.90;100.00;100858.65;109016;1256;74323;-76
2023/02/19 05:44:21;;;;;;;2.50;1.30;;;;;;;4.86;100.00;100867.23;108972;1254;70203;-77
2023/02/19 05:46:48;;;;;;;4.30;1.70;;;;;;;4.83;100.00;100868.74;108987;1256;71425;-77
2023/02/19 05:49:15;;;;;;;3.30;1.40;;;;;;;4.81;100.00;100872.38;108849;1256;60236;-77
2023/02/19 05:51:42;;;;;;;2.90;1.60;;;;;;;4.80;100.00;100878.45;108995;1259;59348;-77
2023/02/19 05:54:09;;;;;;;3.20;1.50;;;;;;;4.80;100.00;100881.64;108891;1259;74343;-77
2023/02/19 05:56:41;;;;;;;2.80;1.20;;;;;;;4.75;100.00;100890.13;108889;1259;70838;-77
2023/02/19 05:59:17;;;;;;;2.70;1.60;;;;;;;4.63;100.00;100897.25;108996;1256;71119;-77
2023/02/19 06:01:44;;;;;;;2.40;1.20;;;;;;;4.54;100.00;100902.05;108921;1254;61759;-77
2023/02/19 06:04:12;;;;;;;2.60;1.30;;;;;;;4.48;100.00;100909.67;108808;1256;60871;-77
2023/02/19 06:06:40;;;;;;;2.00;0.90;;;;;;;4.44;100.00;100915.11;108955;1256;73720;-77
2023/02/19 06:09:08;;;;;;;2.80;1.10;;;;;;;4.40;100.00;100926.17;108787;1256;70529;-77
2023/02/19 06:11:35;;;;;;;3.20;1.10;;;;;;;4.34;100.00;100932.63;108828;1256;71988;-77
2023/02/19 06:14:03;;;;;;;4.50;1.30;;;;;;;4.26;100.00;100945.84;108961;1255;60199;-77
2023/02/19 06:16:32;;;;;;;3.00;1.30;;;;;;;4.19;100.00;100948.08;109028;1256;59042;-77
2023/02/19 06:19:01;;;;;;;3.80;1.00;;;;;;;4.16;100.00;100955.15;108900;1254;72834;-77
2023/02/19 06:21:28;;;;;;;3.10;0.90;;;;;;;4.15;100.00;100962.41;108925;1254;71254;-77
2023/02/19 06:23:55;;;;;;;2.70;0.90;;;;;;;4.10;100.00;100975.10;108829;1256;71473;-77
2023/02/19 06:26:23;;;;;;;2.30;0.90;;;;;;;4.02;100.00;100988.98;108961;1255;60900;-76
2023/02/19 06:28:51;;;;;;;2.30;0.90;;;;;;;3.92;100.00;100992.10;108888;1256;60015;-77
2023/02/19 06:31:19;;;;;;;2.20;0.90;;;;;;;3.81;100.00;101000.67;108955;1255;73286;-77
2023/02/19 06:33:46;;;;;;;2.40;0.90;;;;;;;3.71;100.00;101008.44;108984;1256;71868;-76
2023/02/19 06:36:15;;;;;;;2.90;0.80;;;;;;;3.63;100.00;101009.48;108998;1256;71547;-77
2023/02/19 06:38:43;;;;;;;1.60;0.70;;;;;;;3.54;100.00;101013.15;108970;1255;61264;-77
2023/02/19 06:41:10;;;;;;;3.60;0.90;;;;;;;3.48;100.00;101012.23;108873;1256;59396;-77
2023/02/19 06:43:39;;;;;;;1.70;0.90;;;;;;;3.49;100.00;101019.17;108937;1256;73143;-77
2023/02/19 06:46:06;;;;;;;2.70;1.30;;;;;;;3.45;100.00;101020.84;108869;1256;69680;-77
2023/02/19 06:48:34;;;;;;;2.50;1.10;;;;;;;3.44;100.00;101026.67;108432;1256;72480;-76
2023/02/19 06:51:02;;;;;;;1.50;0.90;;;;;;;3.41;100.00;101034.61;107234;1259;61170;-78
2023/02/19 06:53:29;;;;;;;2.50;1.10;;;;;;;3.34;100.00;101044.74;106897;1257;59414;-77
2023/02/19 06:56:04;;;;;;;2.60;1.20;;;;;;;3.35;100.00;101055.92;107181;1256;74651;-77
2023/02/19 06:58:32;;;;;;;2.80;1.40;;;;;;;3.36;100.00;101064.89;107402;1255;70013;-77
2023/02/19 07:00:59;;;;;;;2.40;1.50;;;;;;;3.36;100.00;101068.02;107340;1256;71712;-77
2023/02/19 07:03:26;;;;;;;2.20;1.20;;;;;;;3.34;100.00;101077.28;107503;1256;60686;-77
2023/02/19 07:05:53;;;;;;;2.50;1.10;;;;;;;3.34;100.00;101086.20;107394;1255;61279;-77
2023/02/19 07:08:21;;;;;;;3.50;1.40;;;;;;;3.34;100.00;101091.46;107279;1255;74706;-79
2023/02/19 07:10:56;;;;;;;2.30;1.30;;;;;;;3.36;100.00;101094.77;107875;1255;70880;-80
2023/02/19 07:13:25;;;;;;;2.40;1.40;;;;;;;3.40;100.00;101102.54;108109;1256;72472;-80
2023/02/19 07:15:58;;;;;;;3.00;1.50;;;;;;;3.44;100.00;101109.86;108212;1256;61487;-80
2023/02/19 07:18:25;;;;;;;2.00;1.40;;;;;;;3.48;100.00;101119.91;107985;1255;62046;-80
2023/02/19 07:20:53;;;;;;;2.20;1.40;;;;;;;3.49;100.00;101125.11;107878;1257;74734;-80
2023/02/19 07:23:20;;;;;;;2.60;1.30;;;;;;;3.51;100.00;101127.56;108408;1256;71018;-80
2023/02/19 07:25:48;;;;;;;2.60;1.40;;;;;;;3.53;100.00;101138.05;108408;1256;71311;-80
2023/02/19 07:28:15;;;;;;;2.40;1.50;;;;;;;3.56;100.00;101149.17;108096;1256;60988;-79
2023/02/19 07:30:42;;;;;;;3.00;1.90;;;;;;;3.59;100.00;101158.25;107557;1256;61218;-80
2023/02/19 07:33:09;;;;;;;3.20;2.10;;;;;;;3.60;100.00;101162.89;107957;1256;74661;-80
2023/02/19 07:35:37;;;;;;;3.40;2.10;;;;;;;3.63;100.00;101176.30;108518;1256;70613;-80
2023/02/19 07:38:04;;;;;;;3.20;2.00;;;;;;;3.65;100.00;101191.54;108313;1255;71166;-79
2023/02/19 07:40:31;;;;;;;4.50;2.50;;;;;;;3.67;100.00;101195.38;108372;1255;60960;-80
2023/02/19 07:42:59;;;;;;;5.20;2.40;;;;;;;3.70;100.00;101200.23;108848;1256;59297;-80
2023/02/19 07:45:26;;;;;;;3.80;2.60;;;;;;;3.76;100.00;101200.17;108292;1256;76441;-80
2023/02/19 07:47:53;;;;;;;4.00;2.70;;;;;;;3.82;100.00;101202.66;107776;1256;639993;-80
2023/02/19 07:50:20;;;;;;;3.70;2.40;;;;;;;3.86;100.00;101204.09;109004;1255;71543;-81
2023/02/19 07:52:48;;;;;;;4.90;2.50;;;;;;;3.88;100.00;101202.55;108977;1256;61625;-80
2023/02/19 07:55:15;;;;;;;3.90;2.70;;;;;;;3.93;100.00;101197.75;108989;1256;60004;-80
2023/02/19 07:57:42;;;;;;;4.00;2.90;;;;;;;4.01;100.00;101201.71;109055;1256;74827;-80
2023/02/19 08:00:10;;;;;;;5.40;3.00;;;;;;;4.10;100.00;101200.11;108955;1256;70849;-80
2023/02/19 08:05:22;;;;;;;4.20;2.80;;;;;;;4.19;100.00;101211.70;108923;1256;59691;-80
2023/02/19 08:07:49;;;;;;;4.30;3.00;;;;;;;4.22;100.00;101213.85;109110;1256;59322;-80
2023/02/19 08:13:18;;;;;;;4.10;2.80;;;;;;;4.31;99.96;101227.58;109107;1255;72144;-80
2023/02/19 08:15:46;;;;;;;3.60;2.80;;;;;;;4.36;99.44;101240.13;108233;1256;70591;-78
2023/02/19 08:18:15;;;;;;;4.40;2.90;;;;;;;4.38;99.15;101245.36;108592;1256;61379;-77
2023/02/19 08:20:42;;;;;;;5.80;3.10;;;;;;;4.39;99.14;101243.70;107867;1257;61169;-80
2023/02/19 08:23:10;;;;;;;5.20;3.10;;;;;;;4.41;99.21;101250.75;108586;1256;74563;-79
2023/02/19 08:25:37;;;;;;;4.60;3.00;;;;;;;4.42;98.99;101252.59;107282;1256;69681;-77
2023/02/19 08:28:05;;;;;;;4.50;3.10;;;;;;;4.43;98.98;101253.05;107241;1256;71596;-79
2023/02/19 08:30:33;;;;;;;4.60;2.90;;;;;;;4.43;99.09;101261.40;108014;1256;62750;-78
2023/02/19 08:33:00;;;;;;;3.50;2.70;;;;;;;4.43;98.96;101264.58;108556;1256;61260;-79
2023/02/19 08:35:28;;;;;;;4.70;2.80;;;;;;;4.45;99.08;101267.80;108167;1258;73309;-78
2023/02/19 08:37:56;;;;;;;4.20;2.30;;;;;;;4.46;98.86;101278.36;107928;1256;70981;-78
2023/02/19 08:40:23;;;;;;;3.20;2.30;;;;;;;4.48;98.95;101283.09;108154;1256;72357;-78
2023/02/19 08:42:50;;;;;;;3.40;2.50;;;;;;;4.50;98.68;101283.45;107674;1256;60833;-78
2023/02/19 08:45:18;;;;;;;4.30;2.60;;;;;;;4.49;98.57;101282.48;107080;1256;61274;-78
2023/02/19 08:47:45;;;;;;;4.20;2.70;;;;;;;4.55;99.19;101283.63;107018;1257;74392;-78
2023/02/19 08:50:12;;;;;;;5.00;2.90;;;;;;;4.66;99.68;101284.48;107164;1260;69718;-78
2023/02/19 08:52:39;;;;;;;4.00;2.70;;;;;;;4.73;99.29;101280.25;107330;1256;71252;-78
2023/02/19 08:55:06;;;;;;;4.80;2.80;;;;;;;4.80;98.98;101277.61;106950;1258;61253;-78
2023/02/19 08:57:37;;;;;;;4.60;3.10;;;;;;;4.86;98.70;101283.07;107360;1255;61649;-77
2023/02/19 09:00:06;;;;;;;6.50;3.50;;;;;;;5.00;99.27;101289.86;107450;1256;74371;-76
2023/02/19 09:02:33;;;;;;;4.80;3.40;;;;;;;5.04;97.55;101302.14;107253;1256;70887;-77
2023/02/19 09:05:00;;;;;;;6.40;3.00;;;;;;;5.03;96.96;101301.52;107162;1256;72418;-77
2023/02/19 09:07:28;;;;;;;4.90;3.00;;;;;;;5.05;96.71;101301.55;107207;1256;60911;-77
2023/02/19 09:09:55;;;;;;;6.00;3.30;;;;;;;5.11;96.85;101298.41;107908;1256;61344;-78
2023/02/19 09:12:22;;;;;;;5.40;3.50;;;;;;;5.17;96.07;101298.07;108135;1256;73432;-78
2023/02/19 09:14:49;;;;;;;7.90;4.20;;;;;;;5.25;95.84;101300.83;107885;1256;69671;-78
2023/02/19 09:17:16;;;;;;;7.30;4.70;;;;;;;5.34;95.29;101316.91;108146;1256;73266;-78
2023/02/19 09:19:43;;;;;;;6.90;4.60;;;;;;;5.43;94.68;101323.20;107357;1256;61268;-77
2023/02/19 09:22:11;;;;;;;8.20;4.70;;;;;;;5.55;94.34;101329.77;107040;1256;61283;-77
2023/02/19 09:24:38;;;;;;;6.80;3.80;;;;;;;5.66;94.08;101337.92;107063;1256;73739;-78
2023/02/19 09:27:05;;;;;;;4.60;3.20;;;;;;;5.74;93.52;101336.95;106823;1260;70088;-77
2023/02/19 09:29:33;;;;;;;5.30;3.20;;;;;;;5.86;93.37;101336.48;107358;1256;71143;-77
2023/02/19 09:32:00;;;;;;;6.90;3.20;;;;;;;5.97;92.54;101345.27;107081;1260;61135;-77
2023/02/19 09:34:27;;;;;;;5.30;3.50;;;;;;;6.02;92.30;101353.74;107356;1256;61194;-77
2023/02/19 09:36:54;;;;;;;6.30;4.20;;;;;;;6.06;91.56;101349.72;107709;1256;73406;-76
2023/02/19 09:39:26;;;;;;;7.80;5.00;;;;;;;6.13;91.52;101347.20;107038;1256;71165;-77
2023/02/19 09:41:56;;;;;;;10.30;6.00;;;;;;;6.09;89.86;101352.60;107170;1256;71336;-78
2023/02/19 09:44:29;;;;;;;8.40;5.60;;;;;;;6.04;88.87;101349.36;107087;1255;61174;-78
2023/02/19 09:46:59;;;;;;;10.80;6.40;;;;;;;5.98;88.52;101346.35;106948;1256;61155;-77
2023/02/19 09:49:32;;;;;;;11.30;6.70;;;;;;;5.99;89.48;101347.41;107451;1256;73115;-76
2023/02/19 09:52:14;;;;;;;12.00;7.60;;;;;;;6.10;90.09;101353.45;106883;1256;70893;-77
2023/02/19 09:54:41;;;;;;;11.80;7.20;;;;;;;6.12;88.31;101361.48;107757;1256;71115;-76
2023/02/19 09:57:20;;;;;;;14.10;7.80;;;;;;;6.18;88.61;101374.08;106924;1256;61360;-76
2023/02/19 09:59:53;;;;;;;13.70;8.20;;;;;;;6.23;87.81;101383.24;106903;1256;61283;-77
2023/02/19 10:02:23;;;;;;;15.40;8.80;;;;;;;6.29;86.64;101393.51;106809;1255;73503;-76
2023/02/19 10:04:50;;;;;;;13.40;8.00;;;;;;;6.40;87.08;101395.39;106891;1257;72492;-78
2023/02/19 10:07:27;;;;;;;12.70;7.70;;;;;;;6.54;87.51;101398.23;107566;1256;71803;-77
2023/02/19 10:10:01;;;;;;;14.30;7.50;;;;;;;6.57;85.65;101409.02;107811;1259;61165;-79
2023/02/19 10:12:30;;;;;;;11.90;7.00;;;;;;;6.45;84.86;101420.75;107553;1255;59429;-76
2023/02/19 10:15:15;;;;;;;10.70;6.00;;;;;;;6.39;85.20;101422.16;107254;1255;75854;-78
2023/02/19 10:17:42;;;;;;;9.50;4.90;;;;;;;6.38;85.39;101429.27;107237;1256;70253;-77
2023/02/19 10:20:14;;;;;;;8.00;4.60;;;;;;;6.37;85.07;101438.27;106865;1256;71105;-77
2023/02/19 10:22:42;;;;;;;8.50;4.90;;;;;;;6.50;84.81;101436.51;107142;1256;61221;-78
2023/02/19 10:25:15;;;;;;;9.80;5.60;;;;;;;6.66;84.92;101438.88;107096;1259;61164;-78
2023/02/19 10:27:43;;;;;;;8.00;3.60;;;;;;;6.88;82.91;101446.61;107701;1260;74239;-78
2023/02/19 10:30:36;;;;;;;6.50;3.90;;;;;;;7.04;81.72;101463.20;107723;1256;69733;-78
2023/02/19 10:33:14;;;;;;;6.60;3.30;;;;;;;7.21;82.21;101468.23;107735;1256;70728;-79
2023/02/19 10:35:52;;;;;;;6.00;2.90;;;;;;;7.17;79.51;101476.45;107198;1262;61119;-77
2023/02/19 10:38:23;;;;;;;5.80;2.90;;;;;;;7.04;79.33;101474.14;106944;1256;61202;-78
2023/02/19 10:40:57;;;;;;;6.00;3.00;;;;;;;6.97;80.26;101481.00;107898;1256;74435;-78
2023/02/19 10:43:31;;;;;;;4.40;2.80;;;;;;;7.08;80.16;101490.81;108603;1256;70905;-78
2023/02/19 10:46:20;;;;;;;5.40;3.00;;;;;;;7.26;80.46;101490.64;108583;1260;71638;-78
2023/02/19 10:49:00;;;;;;;5.70;2.70;;;;;;;7.50;79.86;101497.52;108770;1256;61215;-77
2023/02/19 10:51:46;;;;;;;4.50;1.80;;;;;;;7.50;77.37;101498.23;108325;1256;61292;-78
2023/02/19 10:54:23;;;;;;;3.50;1.80;;;;;;;7.41;76.10;101500.11;107134;1256;73128;-77
2023/02/19 10:56:50;;;;;;;5.10;1.90;;;;;;;7.33;75.19;101491.23;107532;1259;70909;-77
2023/02/19 10:59:17;;;;;;;3.30;1.90;;;;;;;7.39;76.01;101486.69;107114;1261;71583;-76
2023/02/19 11:02:02;;;;;;;4.50;2.00;;;;;;;7.54;76.30;101489.05;107054;1260;61250;-77
2023/02/19 11:04:33;;;;;;;6.70;2.40;;;;;;;7.61;77.04;101492.52;107720;1256;61299;-78
2023/02/19 11:07:14;;;;;;;6.20;2.30;;;;;;;7.56;75.96;101490.70;106848;1256;73485;-78
2023/02/19 11:09:44;;;;;;;5.30;1.80;;;;;;;7.52;75.93;101492.58;107409;1256;71293;-77
2023/02/19 11:12:13;;;;;;;5.60;1.70;;;;;;;7.63;75.32;101490.96;107814;1256;71541;-78
2023/02/19 11:14:43;;;;;;;3.30;1.50;;;;;;;7.57;73.60;101492.20;106876;1256;59638;-78
2023/02/19 11:17:23;;;;;;;5.90;1.80;;;;;;;7.38;73.51;101495.80;107307;1260;61253;-77
2023/02/19 11:19:54;;;;;;;5.20;1.90;;;;;;;7.31;75.16;101505.13;107011;1256;74390;-78
2023/02/19 11:22:30;;;;;;;4.70;2.20;;;;;;;7.44;75.96;101496.98;107046;1256;70294;-78
2023/02/19 11:25:04;;;;;;;6.30;1.80;;;;;;;7.65;74.71;101503.64;107854;1255;71951;-77
2023/02/19 11:27:31;;;;;;;4.90;2.00;;;;;;;7.84;73.96;101503.33;107585;1256;62825;-79
2023/02/19 11:30:29;;;;;;;4.30;1.50;;;;;;;8.07;73.32;101503.52;107224;1256;61253;-79
2023/02/19 11:33:16;;;;;;;4.10;1.70;;;;;;;8.30;71.28;101512.89;107229;1256;74741;-77
2023/02/19 11:35:47;;;;;;;6.00;1.60;;;;;;;8.48;71.62;101518.20;107101;1258;69777;-77
2023/02/19 11:38:17;;;;;;;4.40;1.30;;;;;;;8.47;70.50;101514.79;107000;1256;72388;-77
2023/02/19 11:40:58;;;;;;;5.40;1.60;;;;;;;8.47;70.07;101506.44;107164;1257;61251;-77
2023/02/19 11:43:41;;;;;;;3.70;1.30;;;;;;;8.53;69.29;101502.05;108589;1260;58961;-78
2023/02/19 11:46:27;;;;;;;5.20;1.20;;;;;;;8.58;67.24;101504.91;107252;1260;73391;-77
2023/02/19 11:49:25;;;;;;;7.10;1.90;;;;;;;8.68;67.30;101515.44;106897;1256;70751;-78
2023/02/19 11:52:01;;;;;;;4.70;1.30;;;;;;;8.68;66.90;101517.59;107618;1256;70876;-78
2023/02/19 11:54:37;;;;;;;4.70;1.20;;;;;;;8.81;67.57;101510.58;107001;1256;61171;-79
2023/02/19 11:57:44;;;;;;;2.60;1.10;;;;;;;9.16;67.86;101511.21;106945;1256;61262;-78
2023/02/19 12:00:29;;;;;;;3.70;1.30;;;;;;;9.75;66.66;101504.79;107122;1256;74833;-78